Time;durP1;ratioP1;P1;durP2;ratioP2;P2;SDS_P1;SDS_P2;PMS_P1;PMS_P2;Temp;Humidity;BMP_temperature;BMP_pressure;BME280_temperature;BME280_humidity;BME280_pressure;Samples;Min_cycle;Max_cycle;Signal;HPM_P1;HPM_P2
2021/12/14 00:00:03;;;;;;;16.27;13.80;;;9.00;1.00;11.00;101642.00;;;;5037792;28;20467;-76
2021/12/14 00:02:32;;;;;;;15.40;13.80;;;9.00;1.00;11.00;101642.00;;;;5049179;28;20489;-77
2021/12/14 00:05:01;;;;;;;15.20;13.70;;;9.00;1.00;11.00;101638.00;;;;5025757;28;20506;-74
2021/12/14 00:07:31;;;;;;;16.13;13.07;;;9.00;1.00;11.00;101642.00;;;;5043008;28;20827;-78
2021/12/14 00:10:12;;;;;;;15.37;13.70;;;9.00;1.00;11.00;101650.00;;;;5034752;28;20563;-78
2021/12/14 00:12:54;;;;;;;15.40;13.77;;;9.10;1.00;11.10;101653.00;;;;5034409;28;21144;-76
2021/12/14 00:15:23;;;;;;;15.07;13.07;;;9.10;1.00;11.10;101629.00;;;;5055168;28;20448;-76
2021/12/14 00:17:55;;;;;;;14.57;13.17;;;9.00;1.00;11.10;101604.00;;;;5055286;28;20490;-78
2021/12/14 00:20:31;;;;;;;14.07;12.50;;;9.10;1.00;11.10;101638.00;;;;5073284;28;20454;-77
2021/12/14 00:25:51;;;;;;;13.87;12.47;;;9.10;1.00;10.90;101651.00;;;;5054680;28;20458;-78
2021/12/14 00:28:24;;;;;;;14.33;12.27;;;9.10;1.00;10.90;101616.00;;;;5063493;28;20546;-77
2021/12/14 00:30:55;;;;;;;12.50;11.20;;;9.10;1.00;10.90;101640.00;;;;5038686;28;21092;-76
2021/12/14 00:33:30;;;;;;;13.40;12.03;;;9.10;1.00;10.90;101623.00;;;;5057524;28;20456;-76
2021/12/14 00:35:59;;;;;;;11.60;10.40;;;9.10;1.00;10.90;101627.00;;;;5056714;28;20455;-77
2021/12/14 00:38:29;;;;;;;11.80;10.67;;;9.10;1.00;10.90;101592.00;;;;5052979;28;20455;-77
2021/12/14 00:41:08;;;;;;;12.37;11.07;;;9.10;1.00;10.90;101632.00;;;;5038479;28;20480;-77
2021/12/14 00:43:37;;;;;;;14.53;11.20;;;9.10;1.00;11.00;101582.00;;;;5052522;28;20460;-76
2021/12/14 00:46:06;;;;;;;13.20;11.80;;;9.10;1.00;11.00;101625.00;;;;5036489;28;20459;-77
2021/12/14 00:48:36;;;;;;;12.80;11.57;;;9.10;1.00;11.00;101585.00;;;;5042558;28;20506;-76
2021/12/14 00:51:06;;;;;;;14.00;12.33;;;9.10;1.00;10.80;101608.00;;;;5066738;28;20546;-77
2021/12/14 00:53:36;;;;;;;12.70;11.23;;;9.10;1.00;10.90;101618.00;;;;5070561;28;20491;-75
2021/12/14 00:56:09;;;;;;;15.50;13.00;;;9.20;1.00;10.90;101621.00;;;;5052429;28;20530;-74
2021/12/14 00:58:38;;;;;;;14.20;11.63;;;9.10;1.00;11.00;101645.00;;;;5058557;28;20468;-74
2021/12/14 01:01:14;;;;;;;12.53;11.27;;;9.00;1.00;11.00;101606.00;;;;5070776;28;20488;-75
2021/12/14 01:03:58;;;;;;;12.60;11.30;;;8.90;1.00;11.00;101630.00;;;;5075257;28;20476;-74
2021/12/14 01:06:31;;;;;;;13.10;10.53;;;9.00;1.00;11.00;101635.00;;;;5075126;28;20459;-76
2021/12/14 01:09:05;;;;;;;12.47;11.17;;;9.00;1.00;11.00;101633.00;;;;5041067;28;21149;-76
2021/12/14 01:11:42;;;;;;;13.17;11.87;;;9.10;1.00;11.00;101625.00;;;;5037372;28;20917;-75
2021/12/14 01:14:17;;;;;;;13.97;11.90;;;9.10;1.00;11.00;101630.00;;;;5028518;28;20516;-74
2021/12/14 01:16:53;;;;;;;16.77;11.83;;;9.10;1.00;11.00;101633.00;;;;5067822;28;20455;-73
2021/12/14 01:19:27;;;;;;;14.23;12.30;;;9.10;1.00;10.90;101643.00;;;;5057196;28;20468;-73
2021/12/14 01:25:03;;;;;;;14.47;12.50;;;9.00;1.00;11.00;101659.00;;;;5049843;28;20473;-78
2021/12/14 01:27:44;;;;;;;13.33;11.93;;;9.00;1.00;11.00;101639.00;;;;5052817;28;20543;-76
2021/12/14 01:30:20;;;;;;;17.90;12.60;;;9.00;1.00;11.00;101648.00;;;;5034070;28;20550;-75
2021/12/14 01:32:51;;;;;;;13.67;12.23;;;9.00;1.00;11.00;101608.00;;;;5025463;28;20455;-74
2021/12/14 01:35:28;;;;;;;14.50;12.23;;;9.10;1.00;11.10;101672.00;;;;5050123;28;20444;-75
2021/12/14 01:38:14;;;;;;;13.60;12.20;;;9.10;1.00;11.00;101658.00;;;;5044243;28;20452;-75
2021/12/14 01:40:55;;;;;;;13.67;12.27;;;9.10;1.00;11.10;101631.00;;;;5031860;28;21004;-75
2021/12/14 01:43:43;;;;;;;13.73;11.10;;;9.10;1.00;11.10;101655.00;;;;5023922;28;20500;-75
2021/12/14 01:46:30;;;;;;;15.53;13.10;;;9.20;1.00;11.00;101650.00;;;;5048859;28;20471;-75
2021/12/14 01:49:29;;;;;;;13.90;12.43;;;9.10;1.00;11.00;101643.00;;;;5044080;28;20452;-76
2021/12/14 01:52:19;;;;;;;15.73;12.50;;;9.20;1.00;11.10;101637.00;;;;5027936;28;20451;-76
2021/12/14 01:54:55;;;;;;;16.53;13.50;;;9.10;1.00;11.10;101655.00;;;;5027368;28;20852;-75
2021/12/14 01:57:29;;;;;;;15.33;13.80;;;9.20;1.00;11.10;101652.00;;;;5040058;28;20448;-76
2021/12/14 01:59:59;;;;;;;14.47;11.67;;;9.10;1.00;11.10;101648.00;;;;5034645;28;20459;-76
2021/12/14 02:02:34;;;;;;;15.10;13.70;;;9.10;1.00;11.00;101641.00;;;;5041963;28;21334;-75
2021/12/14 02:05:16;;;;;;;15.60;14.00;;;9.20;1.00;11.00;101646.00;;;;5021675;28;20509;-76
2021/12/14 02:07:46;;;;;;;16.20;14.60;;;9.20;1.00;10.90;101654.00;;;;5023151;28;20837;-76
2021/12/14 02:10:22;;;;;;;16.07;13.80;;;9.10;1.00;10.80;101650.00;;;;5030304;28;20475;-76
2021/12/14 02:12:52;;;;;;;15.33;13.27;;;9.10;1.00;10.90;101655.00;;;;5047831;28;20836;-75
2021/12/14 02:15:26;;;;;;;15.93;12.13;;;9.00;1.00;10.90;101640.00;;;;5041253;28;20465;-75
2021/12/14 02:17:57;;;;;;;12.47;11.17;;;9.10;1.00;10.90;101652.00;;;;5032003;28;21000;-75
2021/12/14 02:20:31;;;;;;;15.50;13.97;;;9.00;1.00;10.90;101648.00;;;;5036213;28;20530;-76
2021/12/14 02:23:02;;;;;;;17.17;15.37;;;9.10;1.00;10.90;101653.00;;;;5032693;28;20472;-75
2021/12/14 02:25:31;;;;;;;16.83;14.97;;;9.20;1.00;10.90;101649.00;;;;5046163;28;20471;-75
2021/12/14 02:28:05;;;;;;;16.47;12.83;;;9.10;1.00;10.90;101641.00;;;;5050600;28;20464;-74
2021/12/14 02:30:35;;;;;;;18.07;14.90;;;9.00;1.00;10.90;101644.00;;;;5037622;28;21251;-76
2021/12/14 02:33:14;;;;;;;16.00;14.03;;;9.10;1.00;10.90;101623.00;;;;5045048;28;20506;-76
2021/12/14 02:35:43;;;;;;;16.90;15.20;;;9.10;1.00;10.90;101612.00;;;;5034731;28;20964;-76
2021/12/14 02:38:16;;;;;;;19.70;16.13;;;9.10;1.00;10.80;101638.00;;;;5052005;28;20494;-75
2021/12/14 02:40:55;;;;;;;18.03;16.23;;;9.20;1.00;10.80;101624.00;;;;5030442;28;20511;-76
2021/12/14 02:43:35;;;;;;;16.80;15.00;;;9.10;1.00;10.70;101617.00;;;;5032845;28;20467;-76
2021/12/14 02:46:10;;;;;;;18.73;16.83;;;9.00;1.00;10.70;101615.00;;;;5046083;28;20460;-76
2021/12/14 02:48:41;;;;;;;17.33;15.63;;;9.10;1.00;10.60;101620.00;;;;5034498;28;20436;-75
2021/12/14 02:51:15;;;;;;;19.00;17.07;;;9.00;1.00;10.60;101623.00;;;;5029493;28;20503;-76
2021/12/14 02:53:48;;;;;;;18.00;16.30;;;9.00;1.00;10.60;101609.00;;;;5016961;28;20449;-76
2021/12/14 02:56:19;;;;;;;18.70;16.70;;;9.00;1.00;10.60;101617.00;;;;5046753;28;20451;-76
2021/12/14 02:58:49;;;;;;;18.00;16.10;;;9.00;1.00;10.50;101626.00;;;;5030417;28;20450;-76
2021/12/14 03:01:19;;;;;;;17.33;15.63;;;9.00;1.00;10.60;101625.00;;;;5031607;28;20464;-76
2021/12/14 03:03:47;;;;;;;18.87;16.40;;;9.00;1.00;10.60;101633.00;;;;5026791;28;20521;-75
2021/12/14 03:06:21;;;;;;;18.10;16.23;;;9.00;1.00;10.60;101622.00;;;;5032648;28;20785;-75
2021/12/14 03:09:07;;;;;;;18.43;16.20;;;9.00;1.00;10.60;101626.00;;;;5045397;28;20444;-76
2021/12/14 03:11:38;;;;;;;18.47;16.00;;;9.00;1.00;10.70;101604.00;;;;5041778;28;20486;-75
2021/12/14 03:14:07;;;;;;;18.57;16.60;;;9.00;1.00;10.60;101613.00;;;;5024296;28;20452;-76
2021/12/14 03:16:38;;;;;;;18.83;16.83;;;9.00;1.00;10.70;101603.00;;;;5046954;28;21161;-76
2021/12/14 03:19:09;;;;;;;18.77;16.00;;;9.00;1.00;10.60;101607.00;;;;5046092;28;20452;-76
2021/12/14 03:21:45;;;;;;;18.90;17.03;;;9.00;1.00;10.70;101593.00;;;;5049014;28;20488;-75
2021/12/14 03:24:19;;;;;;;19.73;17.70;;;8.90;1.00;10.60;101592.00;;;;5049788;28;20478;-76
2021/12/14 03:26:52;;;;;;;19.90;16.83;;;8.90;1.00;10.50;101573.00;;;;5047097;28;20478;-76
2021/12/14 03:29:25;;;;;;;17.77;16.07;;;9.00;1.00;10.50;101571.00;;;;5032596;28;20456;-76
2021/12/14 03:32:00;;;;;;;23.47;18.00;;;8.90;1.00;10.40;101586.00;;;;5029271;28;20471;-76
2021/12/14 03:34:38;;;;;;;18.67;16.80;;;8.80;1.00;10.40;101519.00;;;;5048691;28;21049;-74
2021/12/14 03:37:12;;;;;;;20.83;17.83;;;8.90;1.00;10.40;101588.00;;;;5021002;28;20457;-76
2021/12/14 03:39:46;;;;;;;18.13;16.33;;;8.80;1.00;10.40;101580.00;;;;5029794;28;20509;-76
2021/12/14 03:42:21;;;;;;;18.57;16.63;;;8.80;1.00;10.20;101585.00;;;;5047766;28;20482;-74
2021/12/14 03:44:53;;;;;;;19.93;17.03;;;8.80;1.00;10.40;101609.00;;;;5051591;28;20884;-76
2021/12/14 03:47:32;;;;;;;19.17;17.13;;;8.80;1.00;10.40;101579.00;;;;5031567;28;20456;-75
2021/12/14 03:50:08;;;;;;;19.90;17.80;;;8.80;1.00;10.40;101583.00;;;;5022871;28;20850;-75
2021/12/14 03:52:42;;;;;;;20.50;17.30;;;8.90;1.00;10.50;101547.00;;;;5034128;28;20833;-76
2021/12/14 03:55:23;;;;;;;20.00;16.90;;;8.90;1.00;10.50;101567.00;;;;5053711;28;20507;-75
2021/12/14 03:57:53;;;;;;;22.27;18.60;;;8.90;1.00;10.50;101575.00;;;;5051058;28;20450;-76
2021/12/14 04:00:31;;;;;;;20.90;18.70;;;8.90;1.00;10.40;101567.00;;;;5054327;28;20459;-76
2021/12/14 04:03:05;;;;;;;21.00;18.80;;;8.80;1.00;10.30;101552.00;;;;5050943;28;20458;-76
2021/12/14 04:06:02;;;;;;;22.80;20.53;;;8.90;1.00;10.30;101577.00;;;;5036526;28;20428;-77
2021/12/14 04:08:31;;;;;;;21.30;19.20;;;8.80;1.00;10.30;101555.00;;;;5053670;28;20819;-76
2021/12/14 04:11:06;;;;;;;21.30;19.20;;;8.90;1.00;10.20;101574.00;;;;5055385;28;20467;-76
2021/12/14 04:13:40;;;;;;;22.53;19.90;;;8.80;1.00;10.30;101568.00;;;;5049080;28;20883;-77
2021/12/14 04:16:17;;;;;;;22.10;19.80;;;8.80;1.00;10.30;101554.00;;;;5056355;28;20455;-75
2021/12/14 04:18:47;;;;;;;22.70;19.97;;;8.80;1.00;10.30;101548.00;;;;5045546;28;20490;-75
2021/12/14 04:21:21;;;;;;;24.30;21.80;;;8.80;1.00;10.20;101536.00;;;;5053816;28;20478;-76
2021/12/14 04:23:52;;;;;;;25.67;22.97;;;8.80;1.00;10.20;101545.00;;;;5029581;28;20571;-75
2021/12/14 04:26:26;;;;;;;24.80;22.17;;;8.80;1.00;10.10;101534.00;;;;5034675;28;20864;-75
2021/12/14 04:28:58;;;;;;;28.90;23.53;;;8.80;1.00;10.10;101552.00;;;;5049728;28;20459;-76
2021/12/14 04:31:36;;;;;;;24.87;22.37;;;8.70;1.00;10.10;101534.00;;;;5046916;28;20461;-76
2021/12/14 04:34:08;;;;;;;25.70;23.00;;;8.70;1.00;10.10;101535.00;;;;5056898;28;20444;-75
2021/12/14 04:36:39;;;;;;;26.17;23.37;;;8.70;1.00;10.10;101533.00;;;;5046211;28;20445;-76
2021/12/14 04:39:32;;;;;;;27.10;24.20;;;8.70;1.00;9.90;101512.00;;;;5059858;28;20483;-76
2021/12/14 04:53:45;;;;;;;30.13;26.87;;;8.50;1.00;9.80;101483.00;;;;5050434;28;20431;-75
2021/12/14 04:56:25;;;;;;;29.27;25.57;;;8.50;1.00;9.80;101474.00;;;;5058770;28;20455;-76
2021/12/14 04:59:01;;;;;;;30.03;26.90;;;8.50;1.00;9.80;101483.00;;;;5041862;28;20448;-77
2021/12/14 05:01:36;;;;;;;30.03;26.83;;;8.60;1.00;9.80;101501.00;;;;5046437;28;20478;-77
2021/12/14 05:04:09;;;;;;;34.00;27.90;;;8.50;1.00;9.80;101499.00;;;;5022162;28;20560;-75
2021/12/14 05:06:48;;;;;;;31.97;28.40;;;8.50;1.00;9.80;101490.00;;;;5033311;28;20473;-77
2021/12/14 05:09:27;;;;;;;31.37;27.97;;;8.50;1.00;9.90;101489.00;;;;5016848;28;20449;-76
2021/12/14 05:12:14;;;;;;;31.93;28.40;;;8.60;1.00;9.90;101492.00;;;;5048754;28;20467;-76
2021/12/14 05:15:07;;;;;;;33.33;28.63;;;8.60;1.00;9.90;101480.00;;;;5031626;28;20463;-77
2021/12/14 05:17:40;;;;;;;34.47;28.80;;;8.60;1.00;9.90;101487.00;;;;5049208;28;20884;-75
2021/12/14 05:20:13;;;;;;;33.30;29.70;;;8.60;1.00;9.90;101493.00;;;;5034289;28;20477;-75
2021/12/14 05:22:45;;;;;;;33.80;29.70;;;8.60;1.00;9.60;101499.00;;;;5051514;28;20478;-76
2021/12/14 05:25:25;;;;;;;34.00;29.40;;;8.60;1.00;9.90;101493.00;;;;5035507;28;20459;-77
2021/12/14 05:28:04;;;;;;;32.60;29.00;;;8.60;1.00;10.00;101487.00;;;;5050233;28;20440;-76
2021/12/14 05:30:41;;;;;;;40.87;30.80;;;8.60;1.00;10.00;101467.00;;;;5040207;28;20480;-76
2021/12/14 05:33:26;;;;;;;36.53;31.87;;;8.70;1.00;9.90;101483.00;;;;5069896;28;20436;-76
2021/12/14 05:36:01;;;;;;;37.17;30.90;;;8.60;1.00;10.00;101472.00;;;;5050693;28;20463;-76
2021/12/14 05:38:45;;;;;;;39.93;31.30;;;8.60;1.00;10.10;101492.00;;;;5036151;28;20498;-76
2021/12/14 05:44:27;;;;;;;40.60;31.67;;;8.70;1.00;10.10;101506.00;;;;5048876;28;20571;-76
2021/12/14 05:47:10;;;;;;;40.77;32.57;;;8.70;1.00;10.10;101505.00;;;;5033360;28;20453;-77
2021/12/14 05:50:02;;;;;;;42.03;34.20;;;8.70;1.00;10.00;101480.00;;;;5044262;28;20479;-75
2021/12/14 05:52:32;;;;;;;38.60;31.70;;;8.70;1.00;10.10;101504.00;;;;5058939;28;20456;-75
2021/12/14 05:55:24;;;;;;;43.20;33.70;;;8.70;1.00;10.10;101527.00;;;;5048948;28;20449;-74
2021/12/14 05:57:52;;;;;;;38.90;32.03;;;8.70;1.00;10.10;101501.00;;;;5064468;28;20484;-74
2021/12/14 06:00:21;;;;;;;40.97;32.77;;;8.70;1.00;10.10;101516.00;;;;5049928;28;20494;-74
2021/12/14 06:03:00;;;;;;;39.67;32.20;;;8.70;1.00;10.10;101514.00;;;;5045031;28;20926;-75
2021/12/14 06:05:31;;;;;;;45.40;33.17;;;8.70;1.00;10.20;101513.00;;;;5031951;28;20996;-75
2021/12/14 06:08:01;;;;;;;37.80;31.77;;;8.70;1.00;10.20;101493.00;;;;5034057;28;20515;-76
2021/12/14 06:10:31;;;;;;;44.20;33.03;;;8.70;1.00;10.20;101525.00;;;;5032995;28;20488;-76
2021/12/14 06:13:00;;;;;;;36.67;31.90;;;8.70;1.00;10.20;101534.00;;;;5053080;28;20518;-76
2021/12/14 06:15:31;;;;;;;36.60;30.93;;;8.80;1.00;10.30;101542.00;;;;5033372;28;20463;-75
2021/12/14 06:18:14;;;;;;;35.87;31.93;;;8.80;1.00;10.30;101552.00;;;;5029064;28;20486;-77
2021/12/14 06:21:31;;;;;;;40.40;32.50;;;8.80;1.00;10.30;101538.00;;;;5028066;28;20985;-76
2021/12/14 06:24:10;;;;;;;37.63;32.40;;;8.80;1.00;10.40;101564.00;;;;5052270;28;20459;-76
2021/12/14 06:26:47;;;;;;;37.77;32.57;;;8.90;1.00;10.20;101560.00;;;;5042770;28;20467;-76
2021/12/14 06:29:21;;;;;;;41.40;32.20;;;8.80;1.00;10.30;101560.00;;;;5043387;28;20466;-77
2021/12/14 06:31:51;;;;;;;40.73;33.00;;;8.90;1.00;10.20;101546.00;;;;5051642;28;20529;-77
2021/12/14 06:34:27;;;;;;;38.53;32.50;;;8.90;1.00;10.20;101544.00;;;;5028543;28;20536;-76
2021/12/14 06:38:08;;;;;;;41.20;34.83;;;8.80;1.00;10.10;101546.00;;;;5032649;28;20972;-76
2021/12/14 06:40:43;;;;;;;40.33;35.40;;;8.80;1.00;10.00;101549.00;;;;5026888;28;20833;-77
2021/12/14 06:43:15;;;;;;;39.60;33.60;;;8.80;1.00;10.10;101550.00;;;;5044881;28;20530;-76
2021/12/14 06:45:51;;;;;;;38.73;32.77;;;8.70;1.00;10.00;101538.00;;;;5030840;28;20548;-76
2021/12/14 06:48:24;;;;;;;39.63;33.53;;;8.70;1.00;9.90;101510.00;;;;5032100;28;20468;-76
2021/12/14 06:51:01;;;;;;;40.83;34.33;;;8.70;1.00;9.90;101531.00;;;;5036870;28;20881;-76
2021/12/14 06:53:50;;;;;;;40.77;33.97;;;8.70;1.00;9.90;101547.00;;;;5042648;28;20448;-76
2021/12/14 06:56:38;;;;;;;41.03;35.80;;;8.60;1.00;9.90;101561.00;;;;5049451;28;20474;-76
2021/12/14 06:59:34;;;;;;;41.27;34.30;;;8.60;1.00;9.90;101542.00;;;;5051774;28;20455;-77
2021/12/14 07:02:16;;;;;;;37.17;33.20;;;8.70;1.00;10.00;101561.00;;;;5025348;28;20467;-77
2021/12/14 07:05:20;;;;;;;39.07;34.87;;;8.60;1.00;10.00;101566.00;;;;5047558;28;20460;-76
2021/12/14 07:07:54;;;;;;;37.00;33.00;;;8.70;1.00;10.00;101558.00;;;;5034989;28;20490;-77
2021/12/14 07:10:22;;;;;;;38.70;34.50;;;8.70;1.00;10.00;101572.00;;;;5035885;28;20506;-77
2021/12/14 07:12:52;;;;;;;39.47;33.40;;;8.70;1.00;10.00;101569.00;;;;5044792;28;20457;-77
2021/12/14 07:15:24;;;;;;;41.70;35.00;;;8.60;1.00;9.90;101552.00;;;;5037185;28;20448;-77
2021/12/14 07:18:02;;;;;;;40.00;33.60;;;8.70;1.00;9.90;101565.00;;;;5039868;28;20449;-77
2021/12/14 07:20:34;;;;;;;37.17;32.20;;;8.70;1.00;9.80;101553.00;;;;5028662;28;20471;-77
2021/12/14 07:23:18;;;;;;;38.30;31.30;;;8.70;1.00;9.80;101553.00;;;;5053608;28;20470;-76
2021/12/14 07:25:54;;;;;;;37.90;33.50;;;8.60;1.00;9.70;101560.00;;;;5051296;28;20906;-76
2021/12/14 07:28:24;;;;;;;39.63;35.43;;;8.60;1.00;9.70;101558.00;;;;5028574;28;20462;-76
2021/12/14 07:30:57;;;;;;;36.97;31.53;;;8.60;1.00;9.60;101566.00;;;;5034128;28;20468;-77
2021/12/14 07:33:29;;;;;;;38.47;34.37;;;8.60;1.00;217.30;160912.00;;;;5050345;28;20459;-76
2021/12/14 07:36:07;;;;;;;35.93;31.90;;;8.60;1.00;9.90;101527.00;;;;5033612;28;20443;-76
2021/12/14 07:38:45;;;;;;;35.83;31.93;;;8.60;1.00;9.80;101560.00;;;;5051813;28;20467;-75
2021/12/14 07:41:26;;;;;;;36.80;32.80;;;8.70;1.00;9.80;101562.00;;;;5050635;28;20483;-75
2021/12/14 07:43:59;;;;;;;35.10;31.33;;;8.70;1.00;9.90;101555.00;;;;5069335;28;20435;-74
2021/12/14 07:46:36;;;;;;;39.00;32.50;;;8.60;1.00;9.90;101486.00;;;;5055608;28;20496;-76
2021/12/14 07:49:08;;;;;;;37.10;33.27;;;8.70;1.00;10.00;101547.00;;;;5019173;28;20462;-75
2021/12/14 07:51:40;;;;;;;37.73;33.70;;;8.70;1.00;10.00;101552.00;;;;5043210;28;20471;-75
2021/12/14 07:54:15;;;;;;;36.97;32.13;;;8.70;1.00;10.00;101559.00;;;;5034683;28;20439;-75
2021/12/14 07:56:48;;;;;;;38.13;33.30;;;8.70;1.00;10.10;101562.00;;;;5034317;28;20475;-77
2021/12/14 07:59:25;;;;;;;36.90;32.70;;;8.70;1.00;10.00;101553.00;;;;5048959;28;20440;-76
2021/12/14 08:02:14;;;;;;;37.33;32.70;;;8.70;1.00;10.00;101542.00;;;;5041725;28;21179;-76
2021/12/14 08:04:47;;;;;;;38.97;32.10;;;8.80;1.00;10.00;101554.00;;;;5040701;28;20965;-75
2021/12/14 08:07:26;;;;;;;36.80;32.80;;;8.70;1.00;10.00;101561.00;;;;5050828;28;20816;-75
2021/12/14 08:10:07;;;;;;;36.53;32.50;;;8.70;1.00;9.90;101553.00;;;;5050025;28;20511;-75
2021/12/14 08:12:40;;;;;;;37.00;32.87;;;8.80;1.00;10.00;101513.00;;;;5038473;28;20463;-76
2021/12/14 08:15:23;;;;;;;35.93;31.70;;;8.70;1.00;10.00;101556.00;;;;5045431;28;20439;-76
2021/12/14 08:18:07;;;;;;;38.03;33.83;;;8.70;1.00;10.00;101555.00;;;;5024458;28;20458;-74
2021/12/14 08:20:39;;;;;;;39.80;32.33;;;8.70;1.00;10.00;101528.00;;;;5040077;28;20968;-76
2021/12/14 08:23:21;;;;;;;36.40;32.50;;;8.70;1.00;10.10;101575.00;;;;5052262;28;20503;-75
2021/12/14 08:25:56;;;;;;;35.33;31.53;;;8.70;1.00;10.10;101553.00;;;;5072808;28;20535;-75
2021/12/14 08:28:24;;;;;;;37.37;33.33;;;8.80;1.00;10.10;101577.00;;;;5072378;28;20451;-76
2021/12/14 08:31:10;;;;;;;37.60;30.90;;;8.80;1.00;10.20;101559.00;;;;5056891;28;20477;-78
2021/12/14 08:33:38;;;;;;;36.03;32.03;;;8.80;1.00;10.20;101576.00;;;;5057706;28;20421;-76
2021/12/14 08:36:13;;;;;;;37.37;30.80;;;8.80;1.00;10.00;101578.00;;;;5065701;28;20488;-78
2021/12/14 08:38:41;;;;;;;35.60;31.80;;;8.90;1.00;10.00;101598.00;;;;5041652;28;20432;-76
2021/12/14 08:41:19;;;;;;;36.50;32.60;;;8.80;1.00;10.10;101599.00;;;;5061193;28;20516;-79
2021/12/14 08:43:52;;;;;;;37.10;33.10;;;8.80;1.00;10.00;101587.00;;;;5061397;28;20421;-78
2021/12/14 08:46:24;;;;;;;36.13;32.43;;;8.80;1.00;10.00;101597.00;;;;5074458;28;20490;-78
2021/12/14 08:48:57;;;;;;;35.60;31.90;;;8.80;1.00;10.10;101569.00;;;;5070282;28;20469;-78
2021/12/14 08:51:30;;;;;;;37.83;33.70;;;8.80;1.00;10.00;101560.00;;;;5036145;28;21911;-75
2021/12/14 08:54:04;;;;;;;37.23;33.23;;;8.80;1.00;10.00;101595.00;;;;5052818;28;20992;-75
2021/12/14 08:56:41;;;;;;;37.60;33.60;;;8.80;1.00;10.00;101598.00;;;;5040643;28;20627;-76
2021/12/14 08:59:09;;;;;;;38.90;34.47;;;8.80;1.00;10.00;101606.00;;;;5057650;28;20447;-75
2021/12/14 09:01:40;;;;;;;41.23;36.77;;;8.80;1.00;10.00;101602.00;;;;5055126;28;21002;-76
2021/12/14 09:04:14;;;;;;;38.13;33.70;;;8.80;1.00;10.10;101618.00;;;;5054366;28;20858;-73
2021/12/14 09:06:47;;;;;;;38.70;34.50;;;8.80;1.00;10.10;101579.00;;;;5054693;28;20460;-74
2021/12/14 09:09:21;;;;;;;40.27;35.97;;;8.80;1.00;10.10;101604.00;;;;5053908;28;20467;-74
2021/12/14 09:11:56;;;;;;;40.20;35.37;;;8.80;1.00;10.00;101578.00;;;;5051722;28;20883;-74
2021/12/14 09:14:27;;;;;;;41.47;37.13;;;8.80;1.00;10.20;101591.00;;;;5052921;28;20456;-75
2021/12/14 09:16:58;;;;;;;41.20;36.10;;;8.90;1.00;10.10;101577.00;;;;5034347;28;20452;-76
2021/12/14 09:19:32;;;;;;;42.60;37.33;;;8.80;1.00;10.10;101580.00;;;;5035393;28;20544;-74
2021/12/14 09:22:06;;;;;;;38.30;34.20;;;8.80;1.00;10.00;101620.00;;;;5052126;28;20484;-74
2021/12/14 09:24:35;;;;;;;43.00;38.27;;;8.80;1.00;10.10;101636.00;;;;5054109;28;20965;-75
2021/12/14 09:27:11;;;;;;;42.90;37.13;;;8.70;1.00;9.90;101630.00;;;;5051485;28;20482;-75
2021/12/14 09:29:40;;;;;;;44.90;38.60;;;8.70;1.00;9.90;101631.00;;;;5053763;28;20460;-74
2021/12/14 09:32:17;;;;;;;43.80;37.50;;;8.70;1.00;10.00;101639.00;;;;5045996;28;20441;-76
2021/12/14 09:34:46;;;;;;;43.23;37.90;;;8.70;1.00;10.00;101648.00;;;;5070364;28;20475;-76
2021/12/14 09:37:17;;;;;;;44.37;38.97;;;8.70;1.00;10.00;101636.00;;;;5067764;28;20470;-77
2021/12/14 09:39:51;;;;;;;44.20;36.87;;;8.70;1.00;10.10;101644.00;;;;5055319;28;20440;-76
2021/12/14 09:42:26;;;;;;;43.43;38.60;;;8.70;1.00;10.10;101652.00;;;;5072810;28;20478;-76
2021/12/14 09:45:00;;;;;;;43.70;38.93;;;8.70;1.00;10.00;101618.00;;;;5050589;28;20447;-76
2021/12/14 09:47:33;;;;;;;43.93;37.73;;;8.70;1.00;10.00;101608.00;;;;5059936;28;20490;-77
2021/12/14 09:50:08;;;;;;;45.73;38.97;;;8.70;1.00;9.90;101626.00;;;;5060305;28;20466;-77
2021/12/14 09:52:40;;;;;;;46.20;37.93;;;8.70;1.00;9.80;101626.00;;;;5041471;28;20462;-77
2021/12/14 09:55:14;;;;;;;45.50;39.30;;;8.70;1.00;9.80;101623.00;;;;5065519;28;20451;-75
2021/12/14 09:57:53;;;;;;;49.17;40.13;;;8.60;1.00;9.70;101579.00;;;;5071248;28;20448;-77
2021/12/14 10:00:25;;;;;;;50.80;41.60;;;8.60;1.00;9.80;101635.00;;;;5071922;28;20475;-77
2021/12/14 10:02:56;;;;;;;49.77;41.70;;;8.60;1.00;10.00;101640.00;;;;5063439;28;20539;-77
2021/12/14 10:05:33;;;;;;;50.93;40.90;;;8.60;1.00;10.00;101638.00;;;;5055224;28;20432;-77
2021/12/14 10:08:14;;;;;;;50.67;42.53;;;8.70;1.00;10.10;101647.00;;;;5030068;28;21051;-77
2021/12/14 10:10:48;;;;;;;52.57;43.43;;;8.70;1.00;10.10;101642.00;;;;5050350;28;20459;-76
2021/12/14 10:13:20;;;;;;;50.87;43.07;;;8.70;1.00;10.00;101637.00;;;;5037566;28;20458;-76
2021/12/14 10:15:54;;;;;;;48.63;39.70;;;8.80;1.00;10.10;101618.00;;;;5050345;28;20474;-79
2021/12/14 10:18:29;;;;;;;51.57;40.43;;;8.80;1.00;10.10;101623.00;;;;5048763;28;20539;-77
2021/12/14 10:21:06;;;;;;;47.10;39.73;;;8.80;1.00;10.00;101617.00;;;;5054358;28;20476;-76
2021/12/14 10:23:37;;;;;;;50.17;38.93;;;8.80;1.00;10.00;101622.00;;;;5034403;28;20507;-77
2021/12/14 10:26:06;;;;;;;49.93;38.97;;;8.70;1.00;9.90;101579.00;;;;5053549;28;20529;-79
2021/12/14 10:28:41;;;;;;;50.30;40.27;;;8.70;1.00;9.90;101631.00;;;;5059994;28;20447;-77
2021/12/14 10:31:14;;;;;;;48.03;38.60;;;8.70;1.00;9.90;101589.00;;;;5051544;28;21043;-77
2021/12/14 10:33:43;;;;;;;46.73;37.57;;;8.70;1.00;9.90;101606.00;;;;5040586;28;20459;-76
2021/12/14 10:36:25;;;;;;;46.27;37.17;;;8.70;1.00;9.90;101620.00;;;;5040999;28;20463;-76
2021/12/14 10:39:18;;;;;;;47.10;37.73;;;8.70;1.00;10.00;101609.00;;;;5052101;28;20492;-77
2021/12/14 10:44:43;;;;;;;41.67;35.70;;;8.80;1.00;10.10;101632.00;;;;5042464;28;20897;-76
2021/12/14 10:47:16;;;;;;;41.53;34.30;;;8.80;1.00;10.20;101623.00;;;;5047014;28;21071;-75
2021/12/14 10:49:49;;;;;;;43.80;34.50;;;8.90;1.00;10.30;101607.00;;;;5051932;28;20447;-77
2021/12/14 10:52:32;;;;;;;44.93;36.63;;;8.90;1.00;9.40;101656.00;;;;5052276;28;20510;-75
2021/12/14 10:55:09;;;;;;;42.30;33.10;;;9.00;1.00;10.30;101594.00;;;;5051778;28;20451;-76
2021/12/14 10:57:38;;;;;;;36.93;32.87;;;8.90;1.00;10.30;101625.00;;;;5055711;28;20428;-74
2021/12/14 11:00:17;;;;;;;46.17;35.13;;;9.00;1.00;10.20;101630.00;;;;5036094;28;22050;-75
2021/12/14 11:02:46;;;;;;;38.63;34.43;;;8.90;1.00;10.10;101617.00;;;;5035787;28;20481;-75
2021/12/14 11:05:18;;;;;;;39.80;33.97;;;8.80;1.00;10.20;101621.00;;;;5051525;28;20537;-74
2021/12/14 11:07:51;;;;;;;41.13;33.17;;;8.90;1.00;10.10;101623.00;;;;5050998;28;20474;-76
2021/12/14 11:10:25;;;;;;;40.33;33.63;;;8.80;1.00;10.10;101616.00;;;;5048363;28;20486;-75
2021/12/14 11:12:59;;;;;;;40.13;33.10;;;8.90;1.00;10.00;101623.00;;;;5050467;28;20507;-74
2021/12/14 11:15:35;;;;;;;37.70;32.80;;;8.90;1.00;10.20;101603.00;;;;5054917;28;20448;-78
2021/12/14 11:18:11;;;;;;;38.97;32.50;;;8.80;1.00;10.20;101609.00;;;;5046459;28;20443;-75
2021/12/14 11:20:50;;;;;;;42.00;35.07;;;8.90;1.00;10.10;101597.00;;;;5038554;28;20471;-77
2021/12/14 11:23:22;;;;;;;41.17;34.77;;;8.90;1.00;10.10;101594.00;;;;5054013;28;20535;-75
2021/12/14 11:26:01;;;;;;;39.10;32.43;;;8.80;1.00;10.10;101620.00;;;;5053068;28;20424;-75
2021/12/14 11:28:36;;;;;;;42.83;34.53;;;8.90;1.00;10.10;101595.00;;;;5048078;28;20479;-75
2021/12/14 11:31:12;;;;;;;39.70;32.90;;;8.90;1.00;10.20;101586.00;;;;5044799;28;20474;-74
2021/12/14 11:33:45;;;;;;;41.40;33.33;;;8.80;1.00;10.20;101578.00;;;;5053114;28;20509;-74
2021/12/14 11:36:19;;;;;;;37.90;32.83;;;8.80;1.00;10.10;101586.00;;;;5052427;28;20479;-74
2021/12/14 11:38:53;;;;;;;40.60;33.40;;;8.80;1.00;10.10;101575.00;;;;5050431;28;20460;-75
2021/12/14 11:41:29;;;;;;;37.83;31.93;;;8.80;1.00;10.10;101574.00;;;;5047736;28;20501;-74
2021/12/14 11:44:04;;;;;;;39.73;33.50;;;8.80;1.00;10.20;101587.00;;;;5058407;28;20535;-78
2021/12/14 11:46:51;;;;;;;39.53;33.00;;;8.80;1.00;10.20;101574.00;;;;5066613;28;20443;-79